sensor_id;sensor_type;location;lat;lon;timestamp;P1;durP1;ratioP1;P2;durP2;ratioP2
75169;SDS011;63749;49.186;9.222;2023-07-22T00:01:12;6.93;;;4.80;;
75169;SDS011;63749;49.186;9.222;2023-07-22T00:03:38;8.47;;;5.40;;
75169;SDS011;63749;49.186;9.222;2023-07-22T00:06:04;11.50;;;6.77;;
75169;SDS011;63749;49.186;9.222;2023-07-22T00:08:34;11.07;;;6.88;;
75169;SDS011;63749;49.186;9.222;2023-07-22T00:11:00;12.18;;;6.25;;
75169;SDS011;63749;49.186;9.222;2023-07-22T00:13:25;10.03;;;6.83;;
75169;SDS011;63749;49.186;9.222;2023-07-22T00:15:52;10.02;;;6.22;;
75169;SDS011;63749;49.186;9.222;2023-07-22T00:18:18;8.52;;;5.82;;
75169;SDS011;63749;49.186;9.222;2023-07-22T00:20:43;9.67;;;5.37;;
75169;SDS011;63749;49.186;9.222;2023-07-22T00:23:08;8.30;;;5.07;;
75169;SDS011;63749;49.186;9.222;2023-07-22T00:25:35;7.20;;;4.78;;
75169;SDS011;63749;49.186;9.222;2023-07-22T00:28:00;6.97;;;4.60;;
75169;SDS011;63749;49.186;9.222;2023-07-22T00:30:26;7.18;;;4.30;;
75169;SDS011;63749;49.186;9.222;2023-07-22T00:32:56;6.85;;;4.18;;
75169;SDS011;63749;49.186;9.222;2023-07-22T00:35:22;7.03;;;4.23;;
75169;SDS011;63749;49.186;9.222;2023-07-22T00:37:48;9.68;;;4.20;;
75169;SDS011;63749;49.186;9.222;2023-07-22T00:40:16;6.97;;;4.25;;
75169;SDS011;63749;49.186;9.222;2023-07-22T00:42:43;6.07;;;4.25;;
75169;SDS011;63749;49.186;9.222;2023-07-22T00:45:09;8.30;;;4.38;;
75169;SDS011;63749;49.186;9.222;2023-07-22T00:47:35;6.70;;;4.07;;
75169;SDS011;63749;49.186;9.222;2023-07-22T00:50:02;8.45;;;4.32;;
75169;SDS011;63749;49.186;9.222;2023-07-22T00:52:31;8.10;;;4.50;;
75169;SDS011;63749;49.186;9.222;2023-07-22T00:55:01;8.00;;;4.40;;
75169;SDS011;63749;49.186;9.222;2023-07-22T00:57:27;6.43;;;4.53;;
75169;SDS011;63749;49.186;9.222;2023-07-22T00:59:52;8.77;;;4.53;;
75169;SDS011;63749;49.186;9.222;2023-07-22T01:02:18;8.73;;;4.77;;
75169;SDS011;63749;49.186;9.222;2023-07-22T01:04:44;7.05;;;4.47;;
75169;SDS011;63749;49.186;9.222;2023-07-22T01:07:10;8.18;;;4.70;;
75169;SDS011;63749;49.186;9.222;2023-07-22T01:09:36;8.67;;;4.57;;
75169;SDS011;63749;49.186;9.222;2023-07-22T01:12:03;8.20;;;4.65;;
75169;SDS011;63749;49.186;9.222;2023-07-22T01:14:30;7.25;;;4.90;;
75169;SDS011;63749;49.186;9.222;2023-07-22T01:16:57;7.47;;;4.60;;
75169;SDS011;63749;49.186;9.222;2023-07-22T01:19:23;7.43;;;4.70;;
75169;SDS011;63749;49.186;9.222;2023-07-22T01:21:49;7.85;;;4.90;;
75169;SDS011;63749;49.186;9.222;2023-07-22T01:24:15;7.60;;;4.80;;
75169;SDS011;63749;49.186;9.222;2023-07-22T01:26:41;7.43;;;4.70;;
75169;SDS011;63749;49.186;9.222;2023-07-22T01:29:07;9.00;;;4.40;;
75169;SDS011;63749;49.186;9.222;2023-07-22T01:31:35;7.83;;;4.47;;
75169;SDS011;63749;49.186;9.222;2023-07-22T01:34:01;7.85;;;4.50;;
75169;SDS011;63749;49.186;9.222;2023-07-22T01:36:26;7.40;;;4.13;;
75169;SDS011;63749;49.186;9.222;2023-07-22T01:38:52;6.63;;;4.10;;
75169;SDS011;63749;49.186;9.222;2023-07-22T01:41:17;5.50;;;3.90;;
75169;SDS011;63749;49.186;9.222;2023-07-22T01:43:42;7.85;;;4.05;;
75169;SDS011;63749;49.186;9.222;2023-07-22T01:46:08;7.70;;;3.73;;
75169;SDS011;63749;49.186;9.222;2023-07-22T01:48:34;6.43;;;3.70;;
75169;SDS011;63749;49.186;9.222;2023-07-22T01:50:59;5.47;;;3.75;;
75169;SDS011;63749;49.186;9.222;2023-07-22T01:53:24;8.27;;;4.20;;
75169;SDS011;63749;49.186;9.222;2023-07-22T01:55:50;7.20;;;3.60;;
75169;SDS011;63749;49.186;9.222;2023-07-22T01:58:15;5.40;;;3.70;;
75169;SDS011;63749;49.186;9.222;2023-07-22T02:00:41;5.95;;;3.70;;
75169;SDS011;63749;49.186;9.222;2023-07-22T02:03:06;6.33;;;3.70;;
75169;SDS011;63749;49.186;9.222;2023-07-22T02:05:31;7.67;;;3.97;;
75169;SDS011;63749;49.186;9.222;2023-07-22T02:07:57;6.67;;;4.00;;
75169;SDS011;63749;49.186;9.222;2023-07-22T02:10:22;5.20;;;3.63;;
75169;SDS011;63749;49.186;9.222;2023-07-22T02:12:47;5.03;;;3.33;;
75169;SDS011;63749;49.186;9.222;2023-07-22T02:15:13;7.82;;;3.97;;
75169;SDS011;63749;49.186;9.222;2023-07-22T02:17:38;5.57;;;3.83;;
75169;SDS011;63749;49.186;9.222;2023-07-22T02:20:04;6.73;;;3.80;;
75169;SDS011;63749;49.186;9.222;2023-07-22T02:22:30;5.82;;;3.60;;
75169;SDS011;63749;49.186;9.222;2023-07-22T02:24:55;6.40;;;3.97;;
75169;SDS011;63749;49.186;9.222;2023-07-22T02:27:21;7.57;;;3.73;;
75169;SDS011;63749;49.186;9.222;2023-07-22T02:29:46;6.70;;;4.03;;
75169;SDS011;63749;49.186;9.222;2023-07-22T02:32:12;6.33;;;3.83;;
75169;SDS011;63749;49.186;9.222;2023-07-22T02:34:37;9.07;;;4.17;;
75169;SDS011;63749;49.186;9.222;2023-07-22T02:37:02;5.90;;;3.83;;
75169;SDS011;63749;49.186;9.222;2023-07-22T02:39:28;5.68;;;4.00;;
75169;SDS011;63749;49.186;9.222;2023-07-22T02:41:53;5.50;;;3.90;;
75169;SDS011;63749;49.186;9.222;2023-07-22T02:44:19;11.27;;;4.30;;
75169;SDS011;63749;49.186;9.222;2023-07-22T02:46:44;6.17;;;4.37;;
75169;SDS011;63749;49.186;9.222;2023-07-22T02:49:09;6.17;;;4.73;;
75169;SDS011;63749;49.186;9.222;2023-07-22T02:51:35;8.60;;;4.63;;
75169;SDS011;63749;49.186;9.222;2023-07-22T02:54:00;6.43;;;4.20;;
75169;SDS011;63749;49.186;9.222;2023-07-22T02:56:26;7.77;;;4.23;;
75169;SDS011;63749;49.186;9.222;2023-07-22T02:58:51;9.30;;;4.30;;
75169;SDS011;63749;49.186;9.222;2023-07-22T03:01:17;6.30;;;4.03;;
75169;SDS011;63749;49.186;9.222;2023-07-22T03:03:43;7.10;;;4.68;;
75169;SDS011;63749;49.186;9.222;2023-07-22T03:06:09;6.50;;;4.47;;
75169;SDS011;63749;49.186;9.222;2023-07-22T03:08:34;7.93;;;4.40;;
75169;SDS011;63749;49.186;9.222;2023-07-22T03:11:00;8.65;;;5.00;;
75169;SDS011;63749;49.186;9.222;2023-07-22T03:13:25;8.17;;;4.70;;
75169;SDS011;63749;49.186;9.222;2023-07-22T03:15:54;8.27;;;5.00;;
75169;SDS011;63749;49.186;9.222;2023-07-22T03:18:20;7.90;;;4.80;;
75169;SDS011;63749;49.186;9.222;2023-07-22T03:20:46;7.28;;;4.85;;
75169;SDS011;63749;49.186;9.222;2023-07-22T03:23:11;8.63;;;4.87;;
75169;SDS011;63749;49.186;9.222;2023-07-22T03:25:36;7.77;;;4.97;;
75169;SDS011;63749;49.186;9.222;2023-07-22T03:28:02;7.57;;;4.67;;
75169;SDS011;63749;49.186;9.222;2023-07-22T03:30:29;7.85;;;5.10;;
75169;SDS011;63749;49.186;9.222;2023-07-22T03:32:55;8.25;;;5.00;;
75169;SDS011;63749;49.186;9.222;2023-07-22T03:35:20;7.87;;;4.70;;
75169;SDS011;63749;49.186;9.222;2023-07-22T03:37:46;7.83;;;5.03;;
75169;SDS011;63749;49.186;9.222;2023-07-22T03:40:11;8.03;;;4.80;;
75169;SDS011;63749;49.186;9.222;2023-07-22T03:42:42;10.38;;;4.93;;
75169;SDS011;63749;49.186;9.222;2023-07-22T03:45:08;9.60;;;4.40;;
75169;SDS011;63749;49.186;9.222;2023-07-22T03:47:37;6.90;;;4.80;;
75169;SDS011;63749;49.186;9.222;2023-07-22T03:50:03;8.48;;;4.75;;
75169;SDS011;63749;49.186;9.222;2023-07-22T03:52:29;7.53;;;4.65;;
75169;SDS011;63749;49.186;9.222;2023-07-22T03:54:55;7.87;;;4.57;;
75169;SDS011;63749;49.186;9.222;2023-07-22T03:57:24;9.73;;;4.67;;
75169;SDS011;63749;49.186;9.222;2023-07-22T03:59:50;8.02;;;4.75;;
75169;SDS011;63749;49.186;9.222;2023-07-22T04:02:15;7.37;;;4.77;;
75169;SDS011;63749;49.186;9.222;2023-07-22T04:04:41;7.30;;;4.90;;
75169;SDS011;63749;49.186;9.222;2023-07-22T04:07:06;7.30;;;4.50;;
75169;SDS011;63749;49.186;9.222;2023-07-22T04:09:33;7.75;;;4.65;;
75169;SDS011;63749;49.186;9.222;2023-07-22T04:11:58;10.20;;;4.67;;
75169;SDS011;63749;49.186;9.222;2023-07-22T04:14:23;8.20;;;4.77;;
75169;SDS011;63749;49.186;9.222;2023-07-22T04:16:49;7.10;;;4.72;;
75169;SDS011;63749;49.186;9.222;2023-07-22T04:19:15;9.00;;;5.77;;
75169;SDS011;63749;49.186;9.222;2023-07-22T04:21:41;8.48;;;5.57;;
75169;SDS011;63749;49.186;9.222;2023-07-22T04:24:07;12.57;;;5.60;;
75169;SDS011;63749;49.186;9.222;2023-07-22T04:26:32;8.60;;;5.60;;
75169;SDS011;63749;49.186;9.222;2023-07-22T04:28:57;10.20;;;5.63;;
75169;SDS011;63749;49.186;9.222;2023-07-22T04:31:23;9.33;;;6.07;;
75169;SDS011;63749;49.186;9.222;2023-07-22T04:33:48;11.47;;;5.80;;
75169;SDS011;63749;49.186;9.222;2023-07-22T04:36:14;10.20;;;6.05;;
75169;SDS011;63749;49.186;9.222;2023-07-22T04:38:39;9.47;;;5.97;;
75169;SDS011;63749;49.186;9.222;2023-07-22T04:41:04;8.10;;;5.63;;
75169;SDS011;63749;49.186;9.222;2023-07-22T04:43:30;10.50;;;5.20;;
75169;SDS011;63749;49.186;9.222;2023-07-22T04:45:55;13.43;;;4.38;;
75169;SDS011;63749;49.186;9.222;2023-07-22T04:48:21;7.20;;;4.80;;
75169;SDS011;63749;49.186;9.222;2023-07-22T04:50:49;8.80;;;4.85;;
75169;SDS011;63749;49.186;9.222;2023-07-22T04:53:16;6.63;;;4.83;;
75169;SDS011;63749;49.186;9.222;2023-07-22T04:55:42;8.07;;;5.40;;
75169;SDS011;63749;49.186;9.222;2023-07-22T04:58:08;8.32;;;5.25;;
75169;SDS011;63749;49.186;9.222;2023-07-22T05:00:35;10.48;;;5.00;;
75169;SDS011;63749;49.186;9.222;2023-07-22T05:03:02;7.50;;;5.00;;
75169;SDS011;63749;49.186;9.222;2023-07-22T05:05:27;6.80;;;4.88;;
75169;SDS011;63749;49.186;9.222;2023-07-22T05:07:53;7.90;;;4.80;;
75169;SDS011;63749;49.186;9.222;2023-07-22T05:10:19;7.25;;;4.65;;
75169;SDS011;63749;49.186;9.222;2023-07-22T05:12:44;9.13;;;4.70;;
75169;SDS011;63749;49.186;9.222;2023-07-22T05:15:10;7.40;;;5.00;;
75169;SDS011;63749;49.186;9.222;2023-07-22T05:17:36;7.67;;;4.13;;
75169;SDS011;63749;49.186;9.222;2023-07-22T05:20:02;6.13;;;4.30;;
75169;SDS011;63749;49.186;9.222;2023-07-22T05:22:31;12.20;;;5.50;;
75169;SDS011;63749;49.186;9.222;2023-07-22T05:24:56;13.37;;;5.60;;
75169;SDS011;63749;49.186;9.222;2023-07-22T05:27:21;9.20;;;5.60;;
75169;SDS011;63749;49.186;9.222;2023-07-22T05:29:48;10.85;;;5.25;;
75169;SDS011;63749;49.186;9.222;2023-07-22T05:32:13;11.97;;;5.60;;
75169;SDS011;63749;49.186;9.222;2023-07-22T05:34:38;8.87;;;5.43;;
75169;SDS011;63749;49.186;9.222;2023-07-22T05:37:04;10.57;;;5.53;;
75169;SDS011;63749;49.186;9.222;2023-07-22T05:39:29;12.75;;;5.70;;
75169;SDS011;63749;49.186;9.222;2023-07-22T05:41:55;9.23;;;5.50;;
75169;SDS011;63749;49.186;9.222;2023-07-22T05:44:20;10.60;;;5.20;;
75169;SDS011;63749;49.186;9.222;2023-07-22T05:46:46;7.28;;;4.55;;
75169;SDS011;63749;49.186;9.222;2023-07-22T05:49:11;7.87;;;4.47;;
75169;SDS011;63749;49.186;9.222;2023-07-22T05:51:37;6.97;;;4.27;;
75169;SDS011;63749;49.186;9.222;2023-07-22T05:54:02;6.77;;;4.37;;
75169;SDS011;63749;49.186;9.222;2023-07-22T05:56:28;7.65;;;4.53;;
75169;SDS011;63749;49.186;9.222;2023-07-22T05:58:53;8.47;;;4.20;;
75169;SDS011;63749;49.186;9.222;2023-07-22T06:01:19;7.60;;;4.30;;
75169;SDS011;63749;49.186;9.222;2023-07-22T06:03:45;8.20;;;3.78;;
75169;SDS011;63749;49.186;9.222;2023-07-22T06:06:10;6.83;;;3.70;;
75169;SDS011;63749;49.186;9.222;2023-07-22T06:08:35;6.07;;;3.83;;
75169;SDS011;63749;49.186;9.222;2023-07-22T06:11:01;4.43;;;3.30;;
75169;SDS011;63749;49.186;9.222;2023-07-22T06:13:26;5.40;;;3.20;;
75169;SDS011;63749;49.186;9.222;2023-07-22T06:15:52;6.77;;;3.50;;
75169;SDS011;63749;49.186;9.222;2023-07-22T06:18:17;5.32;;;2.83;;
75169;SDS011;63749;49.186;9.222;2023-07-22T06:20:43;5.27;;;2.93;;
75169;SDS011;63749;49.186;9.222;2023-07-22T06:23:09;5.10;;;3.20;;
75169;SDS011;63749;49.186;9.222;2023-07-22T06:25:34;5.90;;;3.60;;
75169;SDS011;63749;49.186;9.222;2023-07-22T06:27:59;5.60;;;3.50;;
75169;SDS011;63749;49.186;9.222;2023-07-22T06:30:25;6.80;;;3.70;;
75169;SDS011;63749;49.186;9.222;2023-07-22T06:32:50;8.83;;;4.07;;
75169;SDS011;63749;49.186;9.222;2023-07-22T06:35:15;7.53;;;4.20;;
75169;SDS011;63749;49.186;9.222;2023-07-22T06:37:41;6.60;;;4.10;;
75169;SDS011;63749;49.186;9.222;2023-07-22T06:40:06;7.10;;;4.33;;
75169;SDS011;63749;49.186;9.222;2023-07-22T06:42:32;6.95;;;4.30;;
75169;SDS011;63749;49.186;9.222;2023-07-22T06:44:58;6.33;;;4.40;;
75169;SDS011;63749;49.186;9.222;2023-07-22T06:47:23;9.13;;;4.87;;
75169;SDS011;63749;49.186;9.222;2023-07-22T06:49:49;12.30;;;5.30;;
75169;SDS011;63749;49.186;9.222;2023-07-22T06:52:15;18.13;;;6.47;;
75169;SDS011;63749;49.186;9.222;2023-07-22T06:54:41;12.52;;;6.32;;
75169;SDS011;63749;49.186;9.222;2023-07-22T06:57:06;11.50;;;8.20;;
75169;SDS011;63749;49.186;9.222;2023-07-22T06:59:32;12.50;;;8.60;;
75169;SDS011;63749;49.186;9.222;2023-07-22T07:01:57;13.45;;;7.18;;
75169;SDS011;63749;49.186;9.222;2023-07-22T07:04:23;11.93;;;7.30;;
75169;SDS011;63749;49.186;9.222;2023-07-22T07:06:49;12.43;;;7.53;;
75169;SDS011;63749;49.186;9.222;2023-07-22T07:09:15;12.52;;;6.90;;
75169;SDS011;63749;49.186;9.222;2023-07-22T07:11:40;11.37;;;6.30;;
75169;SDS011;63749;49.186;9.222;2023-07-22T07:14:06;9.20;;;5.80;;
75169;SDS011;63749;49.186;9.222;2023-07-22T07:16:31;9.77;;;5.63;;
75169;SDS011;63749;49.186;9.222;2023-07-22T07:18:57;11.48;;;5.80;;
75169;SDS011;63749;49.186;9.222;2023-07-22T07:21:24;9.13;;;5.65;;
75169;SDS011;63749;49.186;9.222;2023-07-22T07:23:50;9.33;;;5.87;;
75169;SDS011;63749;49.186;9.222;2023-07-22T07:26:16;9.13;;;5.55;;
75169;SDS011;63749;49.186;9.222;2023-07-22T07:28:42;8.17;;;5.73;;
75169;SDS011;63749;49.186;9.222;2023-07-22T07:31:07;8.98;;;6.00;;
75169;SDS011;63749;49.186;9.222;2023-07-22T07:33:33;9.83;;;5.60;;
75169;SDS011;63749;49.186;9.222;2023-07-22T07:35:59;9.05;;;5.35;;
75169;SDS011;63749;49.186;9.222;2023-07-22T07:38:24;7.83;;;5.23;;
75169;SDS011;63749;49.186;9.222;2023-07-22T07:40:55;7.93;;;5.30;;
75169;SDS011;63749;49.186;9.222;2023-07-22T07:43:22;8.80;;;5.15;;
75169;SDS011;63749;49.186;9.222;2023-07-22T07:45:47;7.70;;;5.20;;
75169;SDS011;63749;49.186;9.222;2023-07-22T07:48:12;10.73;;;5.00;;
75169;SDS011;63749;49.186;9.222;2023-07-22T07:50:38;7.53;;;4.30;;
75169;SDS011;63749;49.186;9.222;2023-07-22T07:53:03;5.97;;;3.70;;
75169;SDS011;63749;49.186;9.222;2023-07-22T07:55:28;6.22;;;3.50;;
75169;SDS011;63749;49.186;9.222;2023-07-22T07:57:54;5.10;;;3.50;;
75169;SDS011;63749;49.186;9.222;2023-07-22T08:00:19;9.23;;;3.90;;
75169;SDS011;63749;49.186;9.222;2023-07-22T08:02:46;5.32;;;3.10;;
75169;SDS011;63749;49.186;9.222;2023-07-22T08:05:11;4.70;;;2.83;;
75169;SDS011;63749;49.186;9.222;2023-07-22T08:07:37;4.97;;;3.23;;
75169;SDS011;63749;49.186;9.222;2023-07-22T08:10:03;4.13;;;2.83;;
75169;SDS011;63749;49.186;9.222;2023-07-22T08:12:30;4.20;;;3.30;;
75169;SDS011;63749;49.186;9.222;2023-07-22T08:14:55;4.20;;;2.50;;
75169;SDS011;63749;49.186;9.222;2023-07-22T08:17:21;5.23;;;2.70;;
75169;SDS011;63749;49.186;9.222;2023-07-22T08:19:46;4.30;;;2.53;;
75169;SDS011;63749;49.186;9.222;2023-07-22T08:22:12;4.97;;;2.30;;
75169;SDS011;63749;49.186;9.222;2023-07-22T08:24:37;4.13;;;2.60;;
75169;SDS011;63749;49.186;9.222;2023-07-22T08:27:02;4.90;;;2.57;;
75169;SDS011;63749;49.186;9.222;2023-07-22T08:29:28;3.27;;;2.40;;
75169;SDS011;63749;49.186;9.222;2023-07-22T08:31:54;3.70;;;2.50;;
75169;SDS011;63749;49.186;9.222;2023-07-22T08:34:19;4.67;;;2.60;;
75169;SDS011;63749;49.186;9.222;2023-07-22T08:36:45;6.63;;;2.50;;
75169;SDS011;63749;49.186;9.222;2023-07-22T08:39:10;6.60;;;2.88;;
75169;SDS011;63749;49.186;9.222;2023-07-22T08:41:36;4.17;;;2.10;;
75169;SDS011;63749;49.186;9.222;2023-07-22T08:44:01;3.67;;;2.45;;
75169;SDS011;63749;49.186;9.222;2023-07-22T08:46:29;4.27;;;2.20;;
75169;SDS011;63749;49.186;9.222;2023-07-22T08:48:59;4.28;;;2.40;;
75169;SDS011;63749;49.186;9.222;2023-07-22T08:51:26;4.30;;;2.30;;
75169;SDS011;63749;49.186;9.222;2023-07-22T08:53:55;4.28;;;2.50;;
75169;SDS011;63749;49.186;9.222;2023-07-22T08:56:23;3.53;;;2.40;;
75169;SDS011;63749;49.186;9.222;2023-07-22T08:58:50;4.00;;;2.20;;
75169;SDS011;63749;49.186;9.222;2023-07-22T09:01:17;3.42;;;2.38;;
75169;SDS011;63749;49.186;9.222;2023-07-22T09:03:42;4.40;;;2.60;;
75169;SDS011;63749;49.186;9.222;2023-07-22T09:06:08;2.97;;;2.20;;
75169;SDS011;63749;49.186;9.222;2023-07-22T09:08:35;3.95;;;2.10;;
75169;SDS011;63749;49.186;9.222;2023-07-22T09:11:01;3.13;;;2.20;;
75169;SDS011;63749;49.186;9.222;2023-07-22T09:13:26;3.30;;;2.20;;
75169;SDS011;63749;49.186;9.222;2023-07-22T09:15:52;3.45;;;2.30;;
75169;SDS011;63749;49.186;9.222;2023-07-22T09:18:18;3.20;;;2.10;;
75169;SDS011;63749;49.186;9.222;2023-07-22T09:20:44;6.63;;;2.10;;
75169;SDS011;63749;49.186;9.222;2023-07-22T09:23:09;4.63;;;2.10;;
75169;SDS011;63749;49.186;9.222;2023-07-22T09:25:34;3.33;;;2.27;;
75169;SDS011;63749;49.186;9.222;2023-07-22T09:28:00;4.73;;;2.40;;
75169;SDS011;63749;49.186;9.222;2023-07-22T09:30:35;2.58;;;2.22;;
75169;SDS011;63749;49.186;9.222;2023-07-22T09:33:02;4.60;;;2.25;;
75169;SDS011;63749;49.186;9.222;2023-07-22T09:35:28;3.78;;;2.33;;
75169;SDS011;63749;49.186;9.222;2023-07-22T09:37:55;3.83;;;2.10;;
75169;SDS011;63749;49.186;9.222;2023-07-22T09:40:25;2.80;;;2.33;;
75169;SDS011;63749;49.186;9.222;2023-07-22T09:42:56;4.35;;;2.40;;
75169;SDS011;63749;49.186;9.222;2023-07-22T09:45:25;3.50;;;2.30;;
75169;SDS011;63749;49.186;9.222;2023-07-22T09:47:55;2.72;;;2.15;;
75169;SDS011;63749;49.186;9.222;2023-07-22T09:50:22;3.20;;;2.20;;
75169;SDS011;63749;49.186;9.222;2023-07-22T09:55:23;3.35;;;2.20;;
75169;SDS011;63749;49.186;9.222;2023-07-22T09:57:51;4.18;;;2.10;;
75169;SDS011;63749;49.186;9.222;2023-07-22T10:00:18;3.15;;;2.10;;
75169;SDS011;63749;49.186;9.222;2023-07-22T10:02:44;3.60;;;1.90;;
75169;SDS011;63749;49.186;9.222;2023-07-22T10:05:13;4.63;;;2.20;;
75169;SDS011;63749;49.186;9.222;2023-07-22T10:07:43;4.88;;;2.00;;
75169;SDS011;63749;49.186;9.222;2023-07-22T10:10:13;2.95;;;1.90;;
75169;SDS011;63749;49.186;9.222;2023-07-22T10:12:41;3.75;;;2.00;;
75169;SDS011;63749;49.186;9.222;2023-07-22T10:15:08;3.50;;;1.80;;
75169;SDS011;63749;49.186;9.222;2023-07-22T10:17:38;3.13;;;1.70;;
75169;SDS011;63749;49.186;9.222;2023-07-22T10:20:11;3.20;;;1.90;;
75169;SDS011;63749;49.186;9.222;2023-07-22T10:22:42;2.83;;;1.70;;
75169;SDS011;63749;49.186;9.222;2023-07-22T10:25:09;3.17;;;1.75;;
75169;SDS011;63749;49.186;9.222;2023-07-22T10:27:36;2.33;;;1.77;;
75169;SDS011;63749;49.186;9.222;2023-07-22T10:30:05;4.53;;;1.70;;
75169;SDS011;63749;49.186;9.222;2023-07-22T10:32:46;2.55;;;1.80;;
75169;SDS011;63749;49.186;9.222;2023-07-22T10:35:13;3.45;;;1.85;;
75169;SDS011;63749;49.186;9.222;2023-07-22T10:37:49;5.40;;;2.10;;
75169;SDS011;63749;49.186;9.222;2023-07-22T10:40:27;2.43;;;1.83;;
75169;SDS011;63749;49.186;9.222;2023-07-22T10:42:56;3.45;;;1.90;;
75169;SDS011;63749;49.186;9.222;2023-07-22T10:45:39;2.67;;;1.92;;
75169;SDS011;63749;49.186;9.222;2023-07-22T10:48:06;2.10;;;1.80;;
75169;SDS011;63749;49.186;9.222;2023-07-22T11:04:34;2.53;;;1.70;;
75169;SDS011;63749;49.186;9.222;2023-07-22T11:06:56;4.77;;;2.00;;
75169;SDS011;63749;49.186;9.222;2023-07-22T11:14:38;5.28;;;2.28;;
75169;SDS011;63749;49.186;9.222;2023-07-22T11:17:06;3.40;;;2.10;;
75169;SDS011;63749;49.186;9.222;2023-07-22T11:19:36;3.17;;;2.07;;
75169;SDS011;63749;49.186;9.222;2023-07-22T11:22:02;3.75;;;1.90;;
75169;SDS011;63749;49.186;9.222;2023-07-22T11:24:28;2.80;;;2.00;;
75169;SDS011;63749;49.186;9.222;2023-07-22T11:26:53;3.07;;;1.80;;
75169;SDS011;63749;49.186;9.222;2023-07-22T11:29:19;3.00;;;2.07;;
75169;SDS011;63749;49.186;9.222;2023-07-22T11:31:50;2.97;;;2.20;;
75169;SDS011;63749;49.186;9.222;2023-07-22T11:34:17;2.85;;;1.90;;
75169;SDS011;63749;49.186;9.222;2023-07-22T11:36:47;3.95;;;2.20;;
75169;SDS011;63749;49.186;9.222;2023-07-22T11:39:20;4.13;;;2.00;;
75169;SDS011;63749;49.186;9.222;2023-07-22T11:41:47;3.30;;;2.00;;
75169;SDS011;63749;49.186;9.222;2023-07-22T11:44:15;3.15;;;1.88;;
75169;SDS011;63749;49.186;9.222;2023-07-22T11:47:00;3.10;;;2.22;;
75169;SDS011;63749;49.186;9.222;2023-07-22T11:49:33;3.70;;;2.13;;
75169;SDS011;63749;49.186;9.222;2023-07-22T11:52:03;3.50;;;2.00;;
75169;SDS011;63749;49.186;9.222;2023-07-22T11:54:30;2.90;;;2.27;;
75169;SDS011;63749;49.186;9.222;2023-07-22T11:56:57;2.58;;;1.90;;
75169;SDS011;63749;49.186;9.222;2023-07-22T11:59:39;2.90;;;2.08;;
75169;SDS011;63749;49.186;9.222;2023-07-22T12:02:11;3.97;;;2.22;;
75169;SDS011;63749;49.186;9.222;2023-07-22T12:04:38;2.53;;;2.10;;
75169;SDS011;63749;49.186;9.222;2023-07-22T12:07:04;3.15;;;2.15;;
75169;SDS011;63749;49.186;9.222;2023-07-22T12:09:30;2.73;;;2.10;;
75169;SDS011;63749;49.186;9.222;2023-07-22T12:11:56;2.25;;;2.00;;
75169;SDS011;63749;49.186;9.222;2023-07-22T12:14:32;2.88;;;2.30;;
75169;SDS011;63749;49.186;9.222;2023-07-22T12:16:59;3.38;;;2.20;;
75169;SDS011;63749;49.186;9.222;2023-07-22T12:19:26;2.43;;;1.97;;
75169;SDS011;63749;49.186;9.222;2023-07-22T12:21:53;3.17;;;2.30;;
75169;SDS011;63749;49.186;9.222;2023-07-22T12:24:19;2.90;;;2.20;;
75169;SDS011;63749;49.186;9.222;2023-07-22T12:26:44;3.37;;;2.33;;
75169;SDS011;63749;49.186;9.222;2023-07-22T12:29:09;3.80;;;2.40;;
75169;SDS011;63749;49.186;9.222;2023-07-22T12:31:36;3.40;;;2.15;;
75169;SDS011;63749;49.186;9.222;2023-07-22T12:34:01;3.37;;;2.20;;
75169;SDS011;63749;49.186;9.222;2023-07-22T12:36:26;2.67;;;2.30;;
75169;SDS011;63749;49.186;9.222;2023-07-22T12:38:52;5.40;;;2.60;;
75169;SDS011;63749;49.186;9.222;2023-07-22T12:41:17;3.87;;;2.20;;
75169;SDS011;63749;49.186;9.222;2023-07-22T12:43:42;3.20;;;2.37;;
75169;SDS011;63749;49.186;9.222;2023-07-22T12:46:08;4.47;;;2.20;;
75169;SDS011;63749;49.186;9.222;2023-07-22T12:48:33;4.10;;;2.20;;
75169;SDS011;63749;49.186;9.222;2023-07-22T12:50:58;2.73;;;2.20;;
75169;SDS011;63749;49.186;9.222;2023-07-22T12:53:24;3.63;;;2.55;;
75169;SDS011;63749;49.186;9.222;2023-07-22T12:55:50;4.43;;;2.90;;
75169;SDS011;63749;49.186;9.222;2023-07-22T12:58:15;3.17;;;2.40;;
75169;SDS011;63749;49.186;9.222;2023-07-22T13:00:40;4.43;;;2.90;;
75169;SDS011;63749;49.186;9.222;2023-07-22T13:03:06;4.00;;;3.00;;
75169;SDS011;63749;49.186;9.222;2023-07-22T13:05:31;2.50;;;2.30;;
75169;SDS011;63749;49.186;9.222;2023-07-22T13:07:57;3.20;;;2.73;;
75169;SDS011;63749;49.186;9.222;2023-07-22T13:10:26;4.32;;;3.22;;
75169;SDS011;63749;49.186;9.222;2023-07-22T13:12:51;3.63;;;3.33;;
75169;SDS011;63749;49.186;9.222;2023-07-22T13:15:17;3.90;;;2.70;;
75169;SDS011;63749;49.186;9.222;2023-07-22T13:17:42;5.47;;;3.20;;
75169;SDS011;63749;49.186;9.222;2023-07-22T13:20:07;3.70;;;3.30;;
75169;SDS011;63749;49.186;9.222;2023-07-22T13:22:34;4.93;;;3.20;;
75169;SDS011;63749;49.186;9.222;2023-07-22T13:25:00;4.07;;;2.78;;
75169;SDS011;63749;49.186;9.222;2023-07-22T13:27:26;3.33;;;2.30;;
75169;SDS011;63749;49.186;9.222;2023-07-22T13:29:51;4.13;;;3.17;;
75169;SDS011;63749;49.186;9.222;2023-07-22T13:32:16;3.43;;;3.00;;
75169;SDS011;63749;49.186;9.222;2023-07-22T13:34:42;4.70;;;3.00;;
75169;SDS011;63749;49.186;9.222;2023-07-22T13:37:08;3.80;;;3.40;;
75169;SDS011;63749;49.186;9.222;2023-07-22T13:39:33;4.70;;;3.40;;
75169;SDS011;63749;49.186;9.222;2023-07-22T13:41:58;4.30;;;3.17;;
75169;SDS011;63749;49.186;9.222;2023-07-22T13:44:24;4.15;;;3.13;;
75169;SDS011;63749;49.186;9.222;2023-07-22T13:46:49;5.03;;;3.10;;
75169;SDS011;63749;49.186;9.222;2023-07-22T13:49:14;7.27;;;3.47;;
75169;SDS011;63749;49.186;9.222;2023-07-22T13:51:40;5.17;;;3.10;;
75169;SDS011;63749;49.186;9.222;2023-07-22T13:54:06;4.15;;;3.45;;
75169;SDS011;63749;49.186;9.222;2023-07-22T13:56:31;4.03;;;3.50;;
75169;SDS011;63749;49.186;9.222;2023-07-22T13:58:56;4.33;;;3.50;;
75169;SDS011;63749;49.186;9.222;2023-07-22T14:01:24;4.32;;;3.42;;
75169;SDS011;63749;49.186;9.222;2023-07-22T14:03:49;4.53;;;3.23;;
75169;SDS011;63749;49.186;9.222;2023-07-22T14:06:14;4.50;;;3.47;;
75169;SDS011;63749;49.186;9.222;2023-07-22T14:08:40;4.60;;;3.37;;
75169;SDS011;63749;49.186;9.222;2023-07-22T14:11:06;3.97;;;3.40;;
75169;SDS011;63749;49.186;9.222;2023-07-22T14:13:32;4.10;;;3.70;;
75169;SDS011;63749;49.186;9.222;2023-07-22T14:15:58;5.80;;;3.53;;
75169;SDS011;63749;49.186;9.222;2023-07-22T14:18:23;4.00;;;3.60;;
75169;SDS011;63749;49.186;9.222;2023-07-22T14:20:49;4.67;;;3.60;;
75169;SDS011;63749;49.186;9.222;2023-07-22T14:23:15;7.55;;;3.50;;
75169;SDS011;63749;49.186;9.222;2023-07-22T14:25:40;6.80;;;3.20;;
75169;SDS011;63749;49.186;9.222;2023-07-22T14:28:05;5.90;;;3.70;;
75169;SDS011;63749;49.186;9.222;2023-07-22T14:30:31;4.43;;;3.10;;
75169;SDS011;63749;49.186;9.222;2023-07-22T14:32:57;6.00;;;3.40;;
75169;SDS011;63749;49.186;9.222;2023-07-22T14:35:23;5.40;;;3.60;;
75169;SDS011;63749;49.186;9.222;2023-07-22T14:37:48;4.95;;;3.47;;
75169;SDS011;63749;49.186;9.222;2023-07-22T14:40:14;7.90;;;3.53;;
75169;SDS011;63749;49.186;9.222;2023-07-22T14:42:39;5.40;;;3.50;;
75169;SDS011;63749;49.186;9.222;2023-07-22T14:45:05;6.17;;;3.50;;
75169;SDS011;63749;49.186;9.222;2023-07-22T14:47:32;3.80;;;3.28;;
75169;SDS011;63749;49.186;9.222;2023-07-22T14:49:57;4.17;;;3.70;;
75169;SDS011;63749;49.186;9.222;2023-07-22T14:52:22;4.50;;;3.38;;
75169;SDS011;63749;49.186;9.222;2023-07-22T14:54:48;6.73;;;3.40;;
75169;SDS011;63749;49.186;9.222;2023-07-22T14:57:14;4.28;;;3.88;;
75169;SDS011;63749;49.186;9.222;2023-07-22T14:59:39;4.10;;;3.50;;
75169;SDS011;63749;49.186;9.222;2023-07-22T15:02:05;5.10;;;3.80;;